KRBG - Roseburg, Oregon, USA
Updated: Fri, 23-Feb-2018 4:53pm PST
Overcast
Overcast
 Wind from SW
Wind: SW 3 mph , 6 km/h
Temperature: 41°F , 5°C
Dew Point: 27°F , -3°C
Humidity: 57%
Barometer: 30.46 inHg , 1031.5 hPa
Clouds: Overcast
Visibility: 10 miles , 16 km
Cloud details: Few Clouds 7000 ft
Overcast 9000 ft
2018/02/24 00:53 KRBG 240053Z AUTO 22003KT 10SM FEW070 OVC090 05/M03 A3046 RMK AO2 SLP321 T00501033

Metar display script from Saratoga-Weather.org